sensor_id;sensor_type;location;lat;lon;timestamp;P1;durP1;ratioP1;P2;durP2;ratioP2
76157;SDS011;64907;51.574;6.502;2022-12-29T00:02:14;1.17;;;1.17;;
76157;SDS011;64907;51.574;6.502;2022-12-29T00:04:39;1.30;;;1.30;;
76157;SDS011;64907;51.574;6.502;2022-12-29T00:07:05;1.40;;;1.40;;
76157;SDS011;64907;51.574;6.502;2022-12-29T00:09:30;1.90;;;1.30;;
76157;SDS011;64907;51.574;6.502;2022-12-29T00:11:56;1.63;;;1.50;;
76157;SDS011;64907;51.574;6.502;2022-12-29T00:14:21;1.40;;;1.40;;
76157;SDS011;64907;51.574;6.502;2022-12-29T00:17:05;1.77;;;1.63;;
76157;SDS011;64907;51.574;6.502;2022-12-29T00:19:30;2.20;;;2.10;;
76157;SDS011;64907;51.574;6.502;2022-12-29T00:22:14;1.80;;;1.70;;
76157;SDS011;64907;51.574;6.502;2022-12-29T00:24:58;1.73;;;1.73;;
76157;SDS011;64907;51.574;6.502;2022-12-29T00:27:42;1.98;;;1.88;;
76157;SDS011;64907;51.574;6.502;2022-12-29T00:30:26;2.25;;;2.15;;
76157;SDS011;64907;51.574;6.502;2022-12-29T00:33:17;1.88;;;1.88;;
76157;SDS011;64907;51.574;6.502;2022-12-29T00:36:21;1.95;;;1.85;;
76157;SDS011;64907;51.574;6.502;2022-12-29T00:38:49;2.20;;;2.10;;
76157;SDS011;64907;51.574;6.502;2022-12-29T00:41:34;1.83;;;1.75;;
76157;SDS011;64907;51.574;6.502;2022-12-29T00:44:18;2.05;;;1.90;;
76157;SDS011;64907;51.574;6.502;2022-12-29T00:46:44;2.03;;;2.03;;
76157;SDS011;64907;51.574;6.502;2022-12-29T00:49:11;1.53;;;1.53;;
76157;SDS011;64907;51.574;6.502;2022-12-29T00:51:55;1.80;;;1.80;;
76157;SDS011;64907;51.574;6.502;2022-12-29T00:54:21;1.73;;;1.63;;
76157;SDS011;64907;51.574;6.502;2022-12-29T00:56:47;1.50;;;1.50;;
76157;SDS011;64907;51.574;6.502;2022-12-29T00:59:12;1.63;;;1.63;;
76157;SDS011;64907;51.574;6.502;2022-12-29T01:01:38;1.75;;;1.75;;
76157;SDS011;64907;51.574;6.502;2022-12-29T01:04:03;1.50;;;1.50;;
76157;SDS011;64907;51.574;6.502;2022-12-29T01:06:28;1.45;;;1.40;;
76157;SDS011;64907;51.574;6.502;2022-12-29T01:08:53;1.47;;;1.47;;
76157;SDS011;64907;51.574;6.502;2022-12-29T01:11:38;1.30;;;1.30;;
76157;SDS011;64907;51.574;6.502;2022-12-29T01:14:03;1.60;;;1.50;;
76157;SDS011;64907;51.574;6.502;2022-12-29T01:16:29;1.42;;;1.30;;
76157;SDS011;64907;51.574;6.502;2022-12-29T01:18:54;1.30;;;1.30;;
76157;SDS011;64907;51.574;6.502;2022-12-29T01:21:19;1.52;;;1.50;;
76157;SDS011;64907;51.574;6.502;2022-12-29T01:23:45;1.20;;;1.20;;
76157;SDS011;64907;51.574;6.502;2022-12-29T01:26:10;1.40;;;1.40;;
76157;SDS011;64907;51.574;6.502;2022-12-29T01:28:37;1.10;;;1.10;;
76157;SDS011;64907;51.574;6.502;2022-12-29T01:31:04;1.40;;;1.40;;
76157;SDS011;64907;51.574;6.502;2022-12-29T01:33:30;1.55;;;1.40;;
76157;SDS011;64907;51.574;6.502;2022-12-29T01:35:59;1.30;;;1.20;;
76157;SDS011;64907;51.574;6.502;2022-12-29T01:38:24;2.85;;;1.58;;
76157;SDS011;64907;51.574;6.502;2022-12-29T01:40:49;1.30;;;1.20;;
76157;SDS011;64907;51.574;6.502;2022-12-29T01:43:14;1.77;;;1.37;;
76157;SDS011;64907;51.574;6.502;2022-12-29T01:45:50;1.17;;;1.17;;
76157;SDS011;64907;51.574;6.502;2022-12-29T01:48:16;1.15;;;1.00;;
76157;SDS011;64907;51.574;6.502;2022-12-29T01:50:52;1.02;;;0.98;;
76157;SDS011;64907;51.574;6.502;2022-12-29T01:53:19;1.02;;;1.02;;
76157;SDS011;64907;51.574;6.502;2022-12-29T01:55:47;1.27;;;1.08;;
76157;SDS011;64907;51.574;6.502;2022-12-29T01:58:13;0.85;;;0.85;;
76157;SDS011;64907;51.574;6.502;2022-12-29T02:00:39;0.90;;;0.90;;
76157;SDS011;64907;51.574;6.502;2022-12-29T02:03:04;1.13;;;0.90;;
76157;SDS011;64907;51.574;6.502;2022-12-29T02:05:46;0.90;;;0.90;;
76157;SDS011;64907;51.574;6.502;2022-12-29T02:08:13;0.98;;;0.80;;
76157;SDS011;64907;51.574;6.502;2022-12-29T02:13:08;1.00;;;0.90;;
76157;SDS011;64907;51.574;6.502;2022-12-29T02:25:37;0.80;;;0.80;;
76157;SDS011;64907;51.574;6.502;2022-12-29T02:39:05;2.42;;;1.45;;
76157;SDS011;64907;51.574;6.502;2022-12-29T02:49:19;1.38;;;1.20;;
76157;SDS011;64907;51.574;6.502;2022-12-29T02:54:33;1.10;;;1.00;;
76157;SDS011;64907;51.574;6.502;2022-12-29T02:59:45;1.80;;;1.02;;
76157;SDS011;64907;51.574;6.502;2022-12-29T03:02:18;2.75;;;1.02;;
76157;SDS011;64907;51.574;6.502;2022-12-29T03:07:23;2.72;;;1.48;;
76157;SDS011;64907;51.574;6.502;2022-12-29T03:09:59;2.47;;;1.10;;
76157;SDS011;64907;51.574;6.502;2022-12-29T03:12:39;1.27;;;0.85;;
76157;SDS011;64907;51.574;6.502;2022-12-29T03:15:31;1.35;;;1.23;;
76157;SDS011;64907;51.574;6.502;2022-12-29T03:18:21;1.20;;;1.10;;
76157;SDS011;64907;51.574;6.502;2022-12-29T03:20:49;2.67;;;1.10;;
76157;SDS011;64907;51.574;6.502;2022-12-29T03:23:15;1.30;;;0.90;;
76157;SDS011;64907;51.574;6.502;2022-12-29T03:25:43;1.92;;;1.25;;
76157;SDS011;64907;51.574;6.502;2022-12-29T03:28:10;1.38;;;1.13;;
76157;SDS011;64907;51.574;6.502;2022-12-29T03:30:37;0.90;;;0.90;;
76157;SDS011;64907;51.574;6.502;2022-12-29T03:33:04;1.38;;;1.15;;
76157;SDS011;64907;51.574;6.502;2022-12-29T03:35:30;1.92;;;1.42;;
76157;SDS011;64907;51.574;6.502;2022-12-29T03:38:10;2.70;;;1.33;;
76157;SDS011;64907;51.574;6.502;2022-12-29T03:40:38;1.58;;;1.48;;
76157;SDS011;64907;51.574;6.502;2022-12-29T03:43:04;1.83;;;0.70;;
76157;SDS011;64907;51.574;6.502;2022-12-29T03:45:30;0.77;;;0.77;;
76157;SDS011;64907;51.574;6.502;2022-12-29T03:47:55;0.63;;;0.63;;
76157;SDS011;64907;51.574;6.502;2022-12-29T03:50:20;0.80;;;0.68;;
76157;SDS011;64907;51.574;6.502;2022-12-29T03:52:46;1.88;;;0.40;;
76157;SDS011;64907;51.574;6.502;2022-12-29T03:55:12;0.63;;;0.60;;
76157;SDS011;64907;51.574;6.502;2022-12-29T03:57:37;1.98;;;0.70;;
76157;SDS011;64907;51.574;6.502;2022-12-29T04:00:03;9.27;;;1.27;;
76157;SDS011;64907;51.574;6.502;2022-12-29T04:02:28;0.40;;;0.40;;
76157;SDS011;64907;51.574;6.502;2022-12-29T04:04:53;2.90;;;0.60;;
76157;SDS011;64907;51.574;6.502;2022-12-29T04:07:19;1.70;;;0.47;;
76157;SDS011;64907;51.574;6.502;2022-12-29T04:09:44;0.53;;;0.53;;
76157;SDS011;64907;51.574;6.502;2022-12-29T04:12:09;0.60;;;0.53;;
76157;SDS011;64907;51.574;6.502;2022-12-29T04:14:34;2.40;;;0.60;;
76157;SDS011;64907;51.574;6.502;2022-12-29T04:16:59;0.47;;;0.47;;
76157;SDS011;64907;51.574;6.502;2022-12-29T04:19:24;1.40;;;0.30;;
76157;SDS011;64907;51.574;6.502;2022-12-29T04:21:50;1.27;;;0.40;;
76157;SDS011;64907;51.574;6.502;2022-12-29T04:24:15;0.95;;;0.32;;
76157;SDS011;64907;51.574;6.502;2022-12-29T04:26:40;0.55;;;0.20;;
76157;SDS011;64907;51.574;6.502;2022-12-29T04:29:06;0.35;;;0.35;;
76157;SDS011;64907;51.574;6.502;2022-12-29T04:31:31;1.95;;;0.30;;
76157;SDS011;64907;51.574;6.502;2022-12-29T04:33:56;0.87;;;0.40;;
76157;SDS011;64907;51.574;6.502;2022-12-29T04:36:22;0.57;;;0.57;;
76157;SDS011;64907;51.574;6.502;2022-12-29T04:38:47;0.40;;;0.40;;
76157;SDS011;64907;51.574;6.502;2022-12-29T04:41:12;0.50;;;0.50;;
76157;SDS011;64907;51.574;6.502;2022-12-29T04:43:38;3.20;;;0.47;;
76157;SDS011;64907;51.574;6.502;2022-12-29T04:46:03;1.03;;;0.50;;
76157;SDS011;64907;51.574;6.502;2022-12-29T04:48:28;1.00;;;0.63;;
76157;SDS011;64907;51.574;6.502;2022-12-29T04:50:53;0.63;;;0.50;;
76157;SDS011;64907;51.574;6.502;2022-12-29T04:53:18;0.77;;;0.70;;
76157;SDS011;64907;51.574;6.502;2022-12-29T04:55:43;3.03;;;0.90;;
76157;SDS011;64907;51.574;6.502;2022-12-29T04:58:09;3.75;;;0.90;;
76157;SDS011;64907;51.574;6.502;2022-12-29T05:00:34;2.10;;;0.77;;
76157;SDS011;64907;51.574;6.502;2022-12-29T05:02:59;2.25;;;0.60;;
76157;SDS011;64907;51.574;6.502;2022-12-29T05:05:24;1.70;;;0.70;;
76157;SDS011;64907;51.574;6.502;2022-12-29T05:07:50;2.15;;;0.70;;
76157;SDS011;64907;51.574;6.502;2022-12-29T05:10:15;1.25;;;0.70;;
76157;SDS011;64907;51.574;6.502;2022-12-29T05:12:40;2.55;;;0.75;;
76157;SDS011;64907;51.574;6.502;2022-12-29T05:15:06;0.93;;;0.50;;
76157;SDS011;64907;51.574;6.502;2022-12-29T05:17:32;1.67;;;0.70;;
76157;SDS011;64907;51.574;6.502;2022-12-29T05:19:57;3.38;;;0.90;;
76157;SDS011;64907;51.574;6.502;2022-12-29T05:22:22;3.17;;;0.60;;
76157;SDS011;64907;51.574;6.502;2022-12-29T05:24:47;1.10;;;0.60;;
76157;SDS011;64907;51.574;6.502;2022-12-29T05:27:13;2.63;;;0.67;;
76157;SDS011;64907;51.574;6.502;2022-12-29T05:29:38;1.98;;;0.95;;
76157;SDS011;64907;51.574;6.502;2022-12-29T05:32:03;1.58;;;0.70;;
76157;SDS011;64907;51.574;6.502;2022-12-29T05:34:29;3.80;;;0.90;;
76157;SDS011;64907;51.574;6.502;2022-12-29T05:36:54;2.17;;;0.98;;
76157;SDS011;64907;51.574;6.502;2022-12-29T05:39:21;1.95;;;0.77;;
76157;SDS011;64907;51.574;6.502;2022-12-29T05:41:46;1.15;;;0.90;;
76157;SDS011;64907;51.574;6.502;2022-12-29T05:44:12;3.60;;;0.80;;
76157;SDS011;64907;51.574;6.502;2022-12-29T05:46:37;0.60;;;0.60;;
76157;SDS011;64907;51.574;6.502;2022-12-29T05:49:02;1.77;;;0.90;;
76157;SDS011;64907;51.574;6.502;2022-12-29T05:51:27;1.90;;;0.93;;
76157;SDS011;64907;51.574;6.502;2022-12-29T05:53:52;2.28;;;0.80;;
76157;SDS011;64907;51.574;6.502;2022-12-29T05:56:18;1.05;;;0.85;;
76157;SDS011;64907;51.574;6.502;2022-12-29T05:58:43;3.23;;;1.00;;
76157;SDS011;64907;51.574;6.502;2022-12-29T06:01:08;0.97;;;0.80;;
76157;SDS011;64907;51.574;6.502;2022-12-29T06:03:33;2.43;;;1.40;;
76157;SDS011;64907;51.574;6.502;2022-12-29T06:05:58;1.50;;;0.90;;
76157;SDS011;64907;51.574;6.502;2022-12-29T06:08:24;5.38;;;1.42;;
76157;SDS011;64907;51.574;6.502;2022-12-29T06:10:49;3.78;;;1.38;;
76157;SDS011;64907;51.574;6.502;2022-12-29T06:13:15;3.50;;;0.85;;
76157;SDS011;64907;51.574;6.502;2022-12-29T06:15:40;7.87;;;1.73;;
76157;SDS011;64907;51.574;6.502;2022-12-29T06:18:05;2.60;;;0.90;;
76157;SDS011;64907;51.574;6.502;2022-12-29T06:20:30;2.83;;;0.80;;
76157;SDS011;64907;51.574;6.502;2022-12-29T06:22:55;2.63;;;1.13;;
76157;SDS011;64907;51.574;6.502;2022-12-29T06:25:20;3.47;;;1.10;;
76157;SDS011;64907;51.574;6.502;2022-12-29T06:27:46;2.00;;;1.10;;
76157;SDS011;64907;51.574;6.502;2022-12-29T06:30:11;2.17;;;1.10;;
76157;SDS011;64907;51.574;6.502;2022-12-29T06:32:38;3.58;;;1.10;;
76157;SDS011;64907;51.574;6.502;2022-12-29T06:35:04;3.50;;;1.25;;
76157;SDS011;64907;51.574;6.502;2022-12-29T06:37:32;2.30;;;0.93;;
76157;SDS011;64907;51.574;6.502;2022-12-29T06:39:57;3.92;;;1.42;;
76157;SDS011;64907;51.574;6.502;2022-12-29T06:42:22;5.25;;;1.30;;
76157;SDS011;64907;51.574;6.502;2022-12-29T06:44:47;5.27;;;1.30;;
76157;SDS011;64907;51.574;6.502;2022-12-29T06:47:12;2.80;;;0.90;;
76157;SDS011;64907;51.574;6.502;2022-12-29T06:49:38;3.80;;;1.15;;
76157;SDS011;64907;51.574;6.502;2022-12-29T06:52:03;2.15;;;1.20;;
76157;SDS011;64907;51.574;6.502;2022-12-29T06:54:29;5.82;;;1.40;;
76157;SDS011;64907;51.574;6.502;2022-12-29T06:56:54;5.50;;;1.23;;
76157;SDS011;64907;51.574;6.502;2022-12-29T06:59:19;3.27;;;1.43;;
76157;SDS011;64907;51.574;6.502;2022-12-29T07:01:45;1.20;;;1.00;;
76157;SDS011;64907;51.574;6.502;2022-12-29T07:04:10;7.37;;;1.70;;
76157;SDS011;64907;51.574;6.502;2022-12-29T07:06:35;3.67;;;1.50;;
76157;SDS011;64907;51.574;6.502;2022-12-29T07:09:00;1.83;;;1.10;;
76157;SDS011;64907;51.574;6.502;2022-12-29T07:11:41;7.57;;;1.70;;
76157;SDS011;64907;51.574;6.502;2022-12-29T07:14:06;1.10;;;0.85;;
76157;SDS011;64907;51.574;6.502;2022-12-29T07:16:31;3.58;;;0.90;;
76157;SDS011;64907;51.574;6.502;2022-12-29T07:18:57;4.30;;;1.17;;
76157;SDS011;64907;51.574;6.502;2022-12-29T07:21:23;2.65;;;1.05;;
76157;SDS011;64907;51.574;6.502;2022-12-29T07:23:51;3.03;;;1.07;;
76157;SDS011;64907;51.574;6.502;2022-12-29T07:26:16;5.03;;;1.52;;
76157;SDS011;64907;51.574;6.502;2022-12-29T07:28:44;1.38;;;1.00;;
76157;SDS011;64907;51.574;6.502;2022-12-29T07:31:13;1.02;;;1.02;;
76157;SDS011;64907;51.574;6.502;2022-12-29T07:33:39;5.13;;;1.10;;
76157;SDS011;64907;51.574;6.502;2022-12-29T07:36:04;2.67;;;1.00;;
76157;SDS011;64907;51.574;6.502;2022-12-29T07:38:30;2.75;;;1.30;;
76157;SDS011;64907;51.574;6.502;2022-12-29T07:40:58;2.83;;;0.90;;
76157;SDS011;64907;51.574;6.502;2022-12-29T07:43:23;7.18;;;1.17;;
76157;SDS011;64907;51.574;6.502;2022-12-29T07:45:49;3.80;;;1.02;;
76157;SDS011;64907;51.574;6.502;2022-12-29T07:48:14;2.70;;;1.23;;
76157;SDS011;64907;51.574;6.502;2022-12-29T07:50:39;5.97;;;1.67;;
76157;SDS011;64907;51.574;6.502;2022-12-29T07:55:32;4.55;;;1.20;;
76157;SDS011;64907;51.574;6.502;2022-12-29T07:57:57;6.80;;;1.42;;
76157;SDS011;64907;51.574;6.502;2022-12-29T08:00:23;4.90;;;1.50;;
76157;SDS011;64907;51.574;6.502;2022-12-29T08:02:48;5.65;;;1.17;;
76157;SDS011;64907;51.574;6.502;2022-12-29T08:05:13;5.43;;;1.42;;
76157;SDS011;64907;51.574;6.502;2022-12-29T08:07:40;3.67;;;1.20;;
76157;SDS011;64907;51.574;6.502;2022-12-29T08:10:07;9.93;;;1.77;;
76157;SDS011;64907;51.574;6.502;2022-12-29T08:12:32;3.20;;;1.17;;
76157;SDS011;64907;51.574;6.502;2022-12-29T08:14:57;5.18;;;1.40;;
76157;SDS011;64907;51.574;6.502;2022-12-29T08:17:22;3.95;;;1.67;;
76157;SDS011;64907;51.574;6.502;2022-12-29T08:19:50;3.77;;;1.40;;
76157;SDS011;64907;51.574;6.502;2022-12-29T08:22:24;3.05;;;1.65;;
76157;SDS011;64907;51.574;6.502;2022-12-29T08:24:49;6.10;;;1.35;;
76157;SDS011;64907;51.574;6.502;2022-12-29T08:27:14;5.03;;;1.53;;
76157;SDS011;64907;51.574;6.502;2022-12-29T08:29:39;8.67;;;1.60;;
76157;SDS011;64907;51.574;6.502;2022-12-29T08:34:34;7.10;;;1.58;;
76157;SDS011;64907;51.574;6.502;2022-12-29T08:36:59;9.07;;;1.95;;
76157;SDS011;64907;51.574;6.502;2022-12-29T08:39:24;5.60;;;1.70;;
76157;SDS011;64907;51.574;6.502;2022-12-29T08:41:50;3.13;;;1.27;;
76157;SDS011;64907;51.574;6.502;2022-12-29T08:44:15;5.32;;;1.50;;
76157;SDS011;64907;51.574;6.502;2022-12-29T08:46:40;7.57;;;1.57;;
76157;SDS011;64907;51.574;6.502;2022-12-29T08:51:36;3.67;;;1.25;;
76157;SDS011;64907;51.574;6.502;2022-12-29T08:54:01;6.97;;;1.60;;
76157;SDS011;64907;51.574;6.502;2022-12-29T08:56:27;6.43;;;1.75;;
76157;SDS011;64907;51.574;6.502;2022-12-29T08:58:52;6.50;;;1.70;;
76157;SDS011;64907;51.574;6.502;2022-12-29T09:06:22;6.45;;;1.65;;
76157;SDS011;64907;51.574;6.502;2022-12-29T09:08:48;4.07;;;1.40;;
76157;SDS011;64907;51.574;6.502;2022-12-29T09:11:16;3.40;;;1.40;;
76157;SDS011;64907;51.574;6.502;2022-12-29T09:13:42;9.95;;;2.28;;
76157;SDS011;64907;51.574;6.502;2022-12-29T09:16:07;4.67;;;1.30;;
76157;SDS011;64907;51.574;6.502;2022-12-29T09:18:44;3.33;;;1.33;;
76157;SDS011;64907;51.574;6.502;2022-12-29T09:21:11;4.65;;;1.35;;
76157;SDS011;64907;51.574;6.502;2022-12-29T09:23:36;9.00;;;2.08;;
76157;SDS011;64907;51.574;6.502;2022-12-29T09:26:01;5.53;;;1.83;;
76157;SDS011;64907;51.574;6.502;2022-12-29T09:28:33;6.70;;;1.73;;
76157;SDS011;64907;51.574;6.502;2022-12-29T09:30:58;8.27;;;1.85;;
76157;SDS011;64907;51.574;6.502;2022-12-29T09:33:24;5.72;;;1.80;;
76157;SDS011;64907;51.574;6.502;2022-12-29T09:35:53;8.45;;;1.40;;
76157;SDS011;64907;51.574;6.502;2022-12-29T09:38:18;7.90;;;1.27;;
76157;SDS011;64907;51.574;6.502;2022-12-29T09:40:45;9.18;;;1.85;;
76157;SDS011;64907;51.574;6.502;2022-12-29T09:46:16;5.20;;;1.27;;
76157;SDS011;64907;51.574;6.502;2022-12-29T09:48:44;3.45;;;1.35;;
76157;SDS011;64907;51.574;6.502;2022-12-29T09:51:11;6.35;;;1.67;;
76157;SDS011;64907;51.574;6.502;2022-12-29T09:53:39;4.53;;;1.17;;
76157;SDS011;64907;51.574;6.502;2022-12-29T09:58:44;8.07;;;2.10;;
76157;SDS011;64907;51.574;6.502;2022-12-29T10:01:32;7.13;;;1.90;;
76157;SDS011;64907;51.574;6.502;2022-12-29T10:03:59;7.90;;;1.75;;
76157;SDS011;64907;51.574;6.502;2022-12-29T10:24:25;7.53;;;1.70;;
76157;SDS011;64907;51.574;6.502;2022-12-29T10:29:43;3.22;;;1.50;;
76157;SDS011;64907;51.574;6.502;2022-12-29T10:32:30;5.63;;;1.75;;
76157;SDS011;64907;51.574;6.502;2022-12-29T10:35:03;3.35;;;1.83;;
76157;SDS011;64907;51.574;6.502;2022-12-29T10:42:43;5.07;;;1.42;;
76157;SDS011;64907;51.574;6.502;2022-12-29T10:45:13;6.88;;;1.75;;
76157;SDS011;64907;51.574;6.502;2022-12-29T10:48:03;3.38;;;1.40;;
76157;SDS011;64907;51.574;6.502;2022-12-29T10:52:58;7.35;;;1.70;;
76157;SDS011;64907;51.574;6.502;2022-12-29T10:55:26;4.45;;;1.73;;
76157;SDS011;64907;51.574;6.502;2022-12-29T10:57:53;6.13;;;1.63;;
76157;SDS011;64907;51.574;6.502;2022-12-29T11:00:19;6.45;;;2.45;;
76157;SDS011;64907;51.574;6.502;2022-12-29T11:02:52;5.68;;;1.60;;
76157;SDS011;64907;51.574;6.502;2022-12-29T11:07:51;6.75;;;1.40;;
76157;SDS011;64907;51.574;6.502;2022-12-29T11:13:03;3.70;;;1.80;;
76157;SDS011;64907;51.574;6.502;2022-12-29T11:20:57;7.10;;;1.77;;
76157;SDS011;64907;51.574;6.502;2022-12-29T11:23:37;8.40;;;2.03;;
76157;SDS011;64907;51.574;6.502;2022-12-29T11:28:31;6.75;;;1.83;;
76157;SDS011;64907;51.574;6.502;2022-12-29T11:31:02;5.22;;;1.80;;
76157;SDS011;64907;51.574;6.502;2022-12-29T11:33:36;6.93;;;1.58;;
76157;SDS011;64907;51.574;6.502;2022-12-29T11:38:35;7.47;;;1.90;;
76157;SDS011;64907;51.574;6.502;2022-12-29T11:41:01;8.05;;;1.70;;
76157;SDS011;64907;51.574;6.502;2022-12-29T11:43:38;5.90;;;1.50;;
76157;SDS011;64907;51.574;6.502;2022-12-29T11:51:10;9.40;;;1.88;;
76157;SDS011;64907;51.574;6.502;2022-12-29T11:56:07;4.05;;;1.50;;
76157;SDS011;64907;51.574;6.502;2022-12-29T11:58:34;5.40;;;1.77;;
76157;SDS011;64907;51.574;6.502;2022-12-29T12:01:00;6.03;;;1.70;;
76157;SDS011;64907;51.574;6.502;2022-12-29T12:03:27;8.82;;;1.70;;
76157;SDS011;64907;51.574;6.502;2022-12-29T12:06:00;5.38;;;2.47;;
76157;SDS011;64907;51.574;6.502;2022-12-29T12:10:58;4.07;;;1.95;;
76157;SDS011;64907;51.574;6.502;2022-12-29T12:20:54;5.72;;;1.52;;
76157;SDS011;64907;51.574;6.502;2022-12-29T12:28:33;8.60;;;2.05;;
76157;SDS011;64907;51.574;6.502;2022-12-29T12:30:59;3.70;;;1.65;;
76157;SDS011;64907;51.574;6.502;2022-12-29T12:33:35;5.55;;;1.33;;
76157;SDS011;64907;51.574;6.502;2022-12-29T12:43:42;8.00;;;2.20;;
76157;SDS011;64907;51.574;6.502;2022-12-29T12:51:33;8.93;;;1.83;;
76157;SDS011;64907;51.574;6.502;2022-12-29T12:56:43;6.40;;;1.40;;
76157;SDS011;64907;51.574;6.502;2022-12-29T13:10:00;6.90;;;1.73;;
76157;SDS011;64907;51.574;6.502;2022-12-29T13:20:20;8.45;;;2.05;;
76157;SDS011;64907;51.574;6.502;2022-12-29T13:22:52;6.05;;;1.98;;
76157;SDS011;64907;51.574;6.502;2022-12-29T13:25:26;4.40;;;2.05;;
76157;SDS011;64907;51.574;6.502;2022-12-29T13:30:23;7.43;;;2.17;;
76157;SDS011;64907;51.574;6.502;2022-12-29T13:33:11;5.40;;;1.73;;
76157;SDS011;64907;51.574;6.502;2022-12-29T13:38:19;9.55;;;1.90;;
76157;SDS011;64907;51.574;6.502;2022-12-29T13:40:47;4.65;;;1.70;;
76157;SDS011;64907;51.574;6.502;2022-12-29T13:43:13;7.38;;;1.65;;
76157;SDS011;64907;51.574;6.502;2022-12-29T13:45:39;7.38;;;1.90;;
76157;SDS011;64907;51.574;6.502;2022-12-29T13:48:15;7.00;;;1.80;;
76157;SDS011;64907;51.574;6.502;2022-12-29T13:50:42;6.35;;;2.13;;
76157;SDS011;64907;51.574;6.502;2022-12-29T13:55:45;5.53;;;1.42;;
76157;SDS011;64907;51.574;6.502;2022-12-29T13:58:15;9.73;;;1.70;;
76157;SDS011;64907;51.574;6.502;2022-12-29T14:06:02;11.10;;;2.03;;
76157;SDS011;64907;51.574;6.502;2022-12-29T14:08:28;4.45;;;1.83;;
76157;SDS011;64907;51.574;6.502;2022-12-29T14:10:57;4.68;;;2.15;;
76157;SDS011;64907;51.574;6.502;2022-12-29T14:13:27;5.93;;;2.00;;
76157;SDS011;64907;51.574;6.502;2022-12-29T14:15:53;4.13;;;2.15;;
76157;SDS011;64907;51.574;6.502;2022-12-29T14:18:21;3.70;;;1.52;;
76157;SDS011;64907;51.574;6.502;2022-12-29T14:20:54;7.78;;;1.60;;
76157;SDS011;64907;51.574;6.502;2022-12-29T14:28:24;4.43;;;1.77;;
76157;SDS011;64907;51.574;6.502;2022-12-29T14:30:50;7.43;;;2.38;;
76157;SDS011;64907;51.574;6.502;2022-12-29T14:33:19;8.57;;;1.70;;
76157;SDS011;64907;51.574;6.502;2022-12-29T14:35:46;11.27;;;1.80;;
76157;SDS011;64907;51.574;6.502;2022-12-29T14:38:15;6.25;;;1.80;;
76157;SDS011;64907;51.574;6.502;2022-12-29T14:40:41;8.43;;;2.00;;
76157;SDS011;64907;51.574;6.502;2022-12-29T14:43:11;8.60;;;2.03;;
76157;SDS011;64907;51.574;6.502;2022-12-29T14:45:54;4.72;;;1.40;;
76157;SDS011;64907;51.574;6.502;2022-12-29T14:50:55;8.38;;;1.88;;
76157;SDS011;64907;51.574;6.502;2022-12-29T14:56:08;4.90;;;1.80;;
76157;SDS011;64907;51.574;6.502;2022-12-29T14:58:41;7.18;;;1.95;;
76157;SDS011;64907;51.574;6.502;2022-12-29T15:01:22;6.68;;;1.40;;
76157;SDS011;64907;51.574;6.502;2022-12-29T15:03:51;6.40;;;2.10;;
76157;SDS011;64907;51.574;6.502;2022-12-29T15:11:21;8.10;;;2.08;;
76157;SDS011;64907;51.574;6.502;2022-12-29T15:13:46;7.93;;;1.95;;
76157;SDS011;64907;51.574;6.502;2022-12-29T15:16:46;6.60;;;1.58;;
76157;SDS011;64907;51.574;6.502;2022-12-29T15:19:05;4.13;;;2.17;;
76157;SDS011;64907;51.574;6.502;2022-12-29T15:24:14;7.40;;;1.52;;
76157;SDS011;64907;51.574;6.502;2022-12-29T15:26:40;4.63;;;1.70;;
76157;SDS011;64907;51.574;6.502;2022-12-29T15:31:50;3.30;;;1.50;;
76157;SDS011;64907;51.574;6.502;2022-12-29T15:34:16;6.53;;;2.00;;
76157;SDS011;64907;51.574;6.502;2022-12-29T15:36:46;5.35;;;1.77;;
76157;SDS011;64907;51.574;6.502;2022-12-29T15:39:23;5.68;;;1.80;;
76157;SDS011;64907;51.574;6.502;2022-12-29T15:44:44;6.47;;;1.77;;
76157;SDS011;64907;51.574;6.502;2022-12-29T15:47:14;4.25;;;1.52;;
76157;SDS011;64907;51.574;6.502;2022-12-29T15:49:42;8.02;;;1.90;;
76157;SDS011;64907;51.574;6.502;2022-12-29T15:54:37;8.27;;;1.92;;
76157;SDS011;64907;51.574;6.502;2022-12-29T15:57:03;9.83;;;1.90;;
76157;SDS011;64907;51.574;6.502;2022-12-29T15:59:30;5.13;;;1.65;;
76157;SDS011;64907;51.574;6.502;2022-12-29T16:01:56;3.75;;;1.70;;
76157;SDS011;64907;51.574;6.502;2022-12-29T16:04:22;5.22;;;1.92;;
76157;SDS011;64907;51.574;6.502;2022-12-29T16:06:58;7.03;;;1.83;;
76157;SDS011;64907;51.574;6.502;2022-12-29T16:09:33;8.02;;;2.22;;
76157;SDS011;64907;51.574;6.502;2022-12-29T16:12:00;3.47;;;1.70;;
76157;SDS011;64907;51.574;6.502;2022-12-29T16:14:30;8.85;;;2.60;;
76157;SDS011;64907;51.574;6.502;2022-12-29T16:16:56;6.32;;;2.15;;
76157;SDS011;64907;51.574;6.502;2022-12-29T16:19:35;9.75;;;2.58;;
76157;SDS011;64907;51.574;6.502;2022-12-29T16:22:02;4.20;;;1.77;;
76157;SDS011;64907;51.574;6.502;2022-12-29T16:24:29;7.70;;;2.13;;
76157;SDS011;64907;51.574;6.502;2022-12-29T16:27:02;7.75;;;2.00;;
76157;SDS011;64907;51.574;6.502;2022-12-29T16:29:31;9.98;;;2.50;;
76157;SDS011;64907;51.574;6.502;2022-12-29T16:31:57;9.38;;;2.08;;
76157;SDS011;64907;51.574;6.502;2022-12-29T16:36:59;7.78;;;2.08;;
76157;SDS011;64907;51.574;6.502;2022-12-29T16:39:26;7.25;;;1.95;;
76157;SDS011;64907;51.574;6.502;2022-12-29T16:41:52;6.07;;;1.92;;
76157;SDS011;64907;51.574;6.502;2022-12-29T16:46:58;7.30;;;1.80;;
76157;SDS011;64907;51.574;6.502;2022-12-29T16:49:24;7.95;;;1.90;;
76157;SDS011;64907;51.574;6.502;2022-12-29T16:51:51;14.52;;;2.78;;
76157;SDS011;64907;51.574;6.502;2022-12-29T16:54:20;4.93;;;2.00;;
76157;SDS011;64907;51.574;6.502;2022-12-29T16:56:46;11.35;;;2.67;;
76157;SDS011;64907;51.574;6.502;2022-12-29T17:02:06;7.40;;;1.98;;
76157;SDS011;64907;51.574;6.502;2022-12-29T17:04:32;5.18;;;1.90;;
76157;SDS011;64907;51.574;6.502;2022-12-29T17:06:57;3.97;;;1.47;;
76157;SDS011;64907;51.574;6.502;2022-12-29T17:09:23;2.53;;;1.20;;
76157;SDS011;64907;51.574;6.502;2022-12-29T17:11:49;4.53;;;1.33;;
76157;SDS011;64907;51.574;6.502;2022-12-29T17:19:37;4.35;;;1.83;;
76157;SDS011;64907;51.574;6.502;2022-12-29T17:22:08;5.10;;;1.30;;
76157;SDS011;64907;51.574;6.502;2022-12-29T17:24:35;3.15;;;1.25;;
76157;SDS011;64907;51.574;6.502;2022-12-29T17:27:01;5.60;;;1.55;;
76157;SDS011;64907;51.574;6.502;2022-12-29T17:29:33;2.58;;;1.17;;
76157;SDS011;64907;51.574;6.502;2022-12-29T17:32:01;2.92;;;1.20;;
76157;SDS011;64907;51.574;6.502;2022-12-29T17:34:28;3.30;;;1.50;;
76157;SDS011;64907;51.574;6.502;2022-12-29T17:36:53;5.00;;;1.25;;
76157;SDS011;64907;51.574;6.502;2022-12-29T17:39:20;8.02;;;1.88;;
76157;SDS011;64907;51.574;6.502;2022-12-29T17:41:45;4.05;;;1.48;;
76157;SDS011;64907;51.574;6.502;2022-12-29T17:44:18;4.22;;;1.63;;
76157;SDS011;64907;51.574;6.502;2022-12-29T17:46:44;7.20;;;1.75;;
76157;SDS011;64907;51.574;6.502;2022-12-29T17:49:10;6.60;;;1.70;;
76157;SDS011;64907;51.574;6.502;2022-12-29T17:51:36;5.32;;;1.52;;
76157;SDS011;64907;51.574;6.502;2022-12-29T17:54:01;7.57;;;1.80;;
76157;SDS011;64907;51.574;6.502;2022-12-29T17:56:26;7.10;;;1.83;;
76157;SDS011;64907;51.574;6.502;2022-12-29T17:58:51;7.93;;;1.77;;
76157;SDS011;64907;51.574;6.502;2022-12-29T18:01:18;6.90;;;1.70;;
76157;SDS011;64907;51.574;6.502;2022-12-29T18:03:45;4.03;;;1.42;;
76157;SDS011;64907;51.574;6.502;2022-12-29T18:06:10;7.40;;;2.00;;
76157;SDS011;64907;51.574;6.502;2022-12-29T18:08:37;4.88;;;1.83;;
76157;SDS011;64907;51.574;6.502;2022-12-29T18:11:02;7.60;;;1.70;;
76157;SDS011;64907;51.574;6.502;2022-12-29T18:13:29;2.58;;;1.45;;
76157;SDS011;64907;51.574;6.502;2022-12-29T18:15:55;8.43;;;1.73;;
76157;SDS011;64907;51.574;6.502;2022-12-29T18:18:21;7.60;;;1.85;;
76157;SDS011;64907;51.574;6.502;2022-12-29T18:20:47;2.78;;;1.25;;
76157;SDS011;64907;51.574;6.502;2022-12-29T18:23:26;5.05;;;1.55;;
76157;SDS011;64907;51.574;6.502;2022-12-29T18:25:53;6.93;;;1.52;;